Latest Weather Observations for Kowanyama

IDQ60801

Issued at 6:02 pm EST Thursday 2 July 2015 (issued every 30 minutes, with the page automatically refreshed every 10 minutes)

About weather observations | Map of weather stations | Latest weather observations for QLD | Other Formats
Station Details ID: 029038 Name: KOWANYAMA AIRPORT Lat: -15.48 Lon: 141.75 Height: 9.6 m
Data from the previous 72 hours. | See also: Recent months at Kowanyama
Date/Time
EST
Temp
°C
App
Temp
°C
Dew
Point
Rel
Hum
%
Delta-T
°C
Wind Press
QNH
hPa
Press
MSL
hPa
Rain
since 9 am
mm
Dir
 
Spd
km/h
Gust
km/h
Spd
kts
Gust
kts
02/06:00pm 29.6 26.7 9.7 29 11.2 SE 15 20 8 11 1014.5 1014.5 0.0
02/05:30pm 30.1 26.4 9.6 28 11.5 SSE 19 24 10 13 1014.2 1014.2 0.0
02/05:00pm 31.0 27.6 9.3 26 12.2 ESE 17 26 9 14 1014.0 1014.0 0.0
02/04:30pm 31.0 27.8 9.8 27 12.0 SSE 17 30 9 16 1014.0 1014.0 0.0
02/04:00pm 31.9 28.2 10.0 26 12.5 SSE 20 28 11 15 1014.0 1014.0 0.0
02/03:30pm 31.1 27.5 9.9 27 12.0 SE 19 28 10 15 1014.1 1014.1 0.0
02/03:00pm 31.5 27.8 10.2 27 12.2 SE 20 32 11 17 1014.4 1014.4 0.0
02/02:30pm 31.1 28.8 10.4 28 11.8 S 13 20 7 11 1014.8 1014.8 0.0
02/02:00pm 31.0 28.1 10.9 29 11.6 SE 17 28 9 15 1015.3 1015.3 0.0
02/01:30pm 31.3 28.4 12.2 31 11.2 SE 19 26 10 14 1015.9 1015.9 0.0
02/01:00pm 29.9 27.6 11.9 33 10.5 E 15 22 8 12 1016.4 1016.4 0.0
02/12:30pm 29.8 26.9 12.3 34 10.3 SE 19 26 10 14 1016.8 1016.8 0.0
02/12:00pm 29.4 27.0 12.8 36 9.8 SE 17 26 9 14 1017.4 1017.4 0.0
02/11:30am 28.5 26.9 12.8 38 9.2 E 13 22 7 12 1018.2 1018.2 0.0
02/11:00am 27.7 26.0 13.6 42 8.3 ESE 15 20 8 11 1018.7 1018.7 0.0
02/10:30am 26.5 25.7 13.9 45 7.5 E 11 17 6 9 1019.0 1019.0 0.0
02/10:00am 26.1 25.3 15.2 51 6.6 ESE 13 17 7 9 1019.2 1019.2 0.0
02/09:30am 24.7 23.5 15.1 55 5.8 ESE 15 20 8 11 1019.4 1019.4 0.0
02/09:00am 23.0 23.2 15.8 64 4.3 ESE 9 13 5 7 1019.3 1019.3 0.0
02/08:30am 21.3 21.8 16.5 74 2.9 ESE 9 13 5 7 1019.0 1019.0 0.0
02/08:00am 18.8 19.8 16.4 86 1.4 SE 6 7 3 4 1018.6 1018.6 0.0
02/07:30am 16.9 17.5 15.4 91 0.9 SE 6 6 3 3 1018.4 1018.4 0.0
02/07:00am 16.4 18.1 15.1 92 0.8 CALM 0 0 0 0 1018.0 1018.0 0.0
02/06:30am 16.6 18.3 15.1 91 0.9 CALM 0 0 0 0 1017.5 1017.5 0.0
02/06:00am 16.9 18.6 15.2 90 1.0 CALM 0 0 0 0 1017.3 1017.3 0.0
02/05:30am 17.5 19.4 15.8 90 1.0 CALM 0 0 0 0 1017.2 1017.2 0.0
02/05:00am 17.3 19.1 15.5 89 1.1 CALM 0 0 0 0 1017.1 1017.1 0.0
02/04:30am 17.7 19.6 15.7 88 1.2 CALM 0 0 0 0 1017.1 1017.1 0.0
02/04:00am 17.8 19.4 16.0 89 1.1 ENE 2 6 1 3 1017.0 1017.0 0.0
02/03:30am 18.4 19.3 16.0 86 1.4 ENE 6 7 3 4 1017.3 1017.3 0.0
02/03:00am 18.6 19.3 16.0 85 1.5 ENE 7 9 4 5 1017.3 1017.3 0.0
02/02:30am 18.7 19.6 16.7 88 1.2 ENE 7 9 4 5 1017.4 1017.4 0.0
02/02:00am 18.5 19.6 16.7 89 1.1 ENE 6 9 3 5 1017.8 1017.8 0.0
02/01:30am 18.4 19.3 16.7 90 1.0 ENE 7 9 4 5 1018.0 1018.0 0.0
02/01:00am 18.4 20.6 16.6 89 1.1 CALM 0 0 0 0 1018.1 1018.1 0.0
02/12:30am 18.7 21.0 16.7 88 1.2 CALM 0 0 0 0 1018.3 1018.3 0.0
02/12:00am 19.0 21.2 16.6 86 1.4 CALM 0 0 0 0 1018.3 1018.3 0.0
 
Date/Time
EST
Temp
°C
App
Temp
°C
Dew
Point
Rel
Hum
%
Delta-T
°C
Wind Press
QNH
hPa
Press
MSL
hPa
Rain
since 9 am
mm
Dir
 
Spd
km/h
Gust
km/h
Spd
kts
Gust
kts
01/11:30pm 19.7 21.9 16.5 82 1.9 CALM 0 0 0 0 1018.5 1018.5 0.0
01/11:00pm 20.2 21.3 16.6 80 2.2 ENE 6 9 3 5 1018.6 1018.6 0.0
01/10:30pm 20.7 22.0 17.5 82 2.0 S 7 20 4 11 1018.6 1018.6 0.0
01/10:00pm 21.3 22.7 17.7 80 2.2 SW 7 11 4 6 1018.1 1018.1 0.0
01/09:30pm 21.7 23.2 17.5 77 2.6 SW 6 7 3 4 1018.0 1018.0 0.0
01/09:00pm 22.2 23.5 17.1 73 3.1 WSW 6 7 3 4 1017.7 1017.7 0.0
01/08:30pm 22.8 23.4 16.8 69 3.7 WSW 9 11 5 6 1017.5 1017.5 0.0
01/08:00pm 23.8 24.4 15.8 61 4.8 WSW 7 11 4 6 1017.2 1017.2 0.0
01/07:30pm 24.4 23.6 13.0 49 6.6 WNW 9 11 5 6 1016.8 1016.8 0.0
01/07:00pm 25.6 25.9 12.1 43 7.7 SE 2 7 1 4 1016.3 1016.3 0.0
01/06:30pm 27.4 26.5 11.4 37 9.1 SE 7 9 4 5 1015.9 1015.9 0.0
01/06:00pm 29.6 28.7 11.2 32 10.6 SE 7 9 4 5 1015.5 1015.5 0.0
01/05:30pm 30.8 28.6 10.7 29 11.5 ESE 13 19 7 10 1015.2 1015.2 0.0
01/05:00pm 30.9 28.9 10.3 28 11.7 SE 11 19 6 10 1015.0 1015.0 0.0
01/04:30pm 31.3 29.3 10.1 27 12.1 SE 11 17 6 9 1014.9 1014.9 0.0
01/04:00pm 31.9 28.2 9.4 25 12.7 ESE 19 28 10 15 1015.0 1015.0 0.0
01/03:30pm 31.2 27.9 9.4 26 12.3 SSE 17 26 9 14 1015.1 1015.1 0.0
01/03:00pm 31.9 29.2 11.7 29 11.8 SE 17 24 9 13 1015.3 1015.3 0.0
01/02:30pm 30.8 27.6 11.2 30 11.3 SE 19 24 10 13 1015.6 1015.6 0.0
01/02:00pm 31.3 29.3 12.6 31 11.1 E 15 26 8 14 1016.0 1016.0 0.0
01/01:30pm 31.2 28.9 13.0 33 10.8 SE 17 28 9 15 1016.6 1016.6 0.0
01/01:00pm 29.5 26.9 12.0 34 10.2 SE 17 26 9 14 1017.1 1017.1 0.0
01/12:30pm 29.8 28.4 14.4 39 9.3 ESE 15 20 8 11 1017.7 1017.7 0.0
01/12:00pm 29.0 27.6 14.4 41 8.8 ESE 15 28 8 15 1018.2 1018.2 0.0
01/11:30am 28.3 26.9 14.5 43 8.3 E 15 20 8 11 1018.7 1018.7 0.0
01/11:00am 27.5 26.1 14.5 45 7.8 ESE 15 37 8 20 1018.9 1018.9 0.0
01/10:30am 26.3 24.3 15.0 49 6.8 ESE 19 24 10 13 1019.4 1019.4 0.0
01/10:00am 25.5 23.6 15.8 55 5.9 ESE 20 30 11 16 1019.6 1019.6 0.0
01/09:30am 24.4 22.5 15.1 56 5.6 ESE 19 30 10 16 1019.7 1019.7 0.0
01/09:00am 23.5 21.9 16.1 63 4.5 ESE 19 26 10 14 1019.7 1019.7 0.0
01/08:30am 22.1 22.4 17.9 77 2.6 SE 13 19 7 10 1019.5 1019.5 0.0
01/08:00am 20.2 22.0 18.7 91 0.9 SE 7 9 4 5 1019.3 1019.3 0.0
01/07:30am 19.4 21.2 18.2 93 0.7 SE 6 7 3 4 1019.1 1019.1 0.0
01/07:00am 19.3 21.0 18.0 92 0.8 SE 6 7 3 4 1018.8 1018.8 0.0
01/06:30am 19.7 21.5 18.2 91 0.9 SE 6 7 3 4 1018.7 1018.7 0.0
01/06:00am 20.0 21.7 18.5 91 0.9 SSE 7 9 4 5 1018.3 1018.3 0.0
01/05:30am 20.2 21.7 18.1 88 1.3 SSE 7 9 4 5 1018.0 1018.0 0.0
01/05:00am 20.6 22.3 18.4 87 1.4 SSE 7 9 4 5 1017.8 1017.8 0.0
01/04:30am 20.7 22.4 18.1 85 1.6 SSE 6 7 3 4 1017.6 1017.6 0.0
01/04:00am 20.8 22.5 18.0 84 1.7 SSE 6 7 3 4 1017.7 1017.7 0.0
01/03:30am 21.3 23.0 18.1 82 2.0 SSE 6 7 3 4 1017.6 1017.6 0.0
01/03:00am 21.6 23.4 18.4 82 2.0 SSE 6 7 3 4 1017.8 1017.8 0.0
01/02:30am 21.5 23.1 18.3 82 2.0 SSE 7 9 4 5 1017.8 1017.8 0.0
01/02:00am 21.7 23.4 18.5 82 2.0 SSE 7 7 4 4 1017.9 1017.9 0.0
01/01:30am 21.8 24.1 18.6 82 2.0 SE 4 7 2 4 1018.0 1018.0 0.0
01/01:00am 22.0 25.2 18.8 82 2.0 CALM 0 0 0 0 1018.2 1018.2 0.0
01/12:30am 21.8 24.8 18.4 81 2.1 CALM 0 0 0 0 1018.1 1018.1 0.0
01/12:00am 22.0 25.0 18.4 80 2.3 CALM 0 0 0 0 1018.2 1018.2 0.0
 
Date/Time
EST
Temp
°C
App
Temp
°C
Dew
Point
Rel
Hum
%
Delta-T
°C
Wind Press
QNH
hPa
Press
MSL
hPa
Rain
since 9 am
mm
Dir
 
Spd
km/h
Gust
km/h
Spd
kts
Gust
kts
30/11:30pm 22.2 25.2 18.4 79 2.4 CALM 0 0 0 0 1018.4 1018.4 0.0
30/11:00pm 22.8 25.7 18.1 75 2.9 CALM 0 0 0 0 1018.4 1018.4 0.0
30/10:30pm 23.1 24.7 18.2 74 3.1 SSE 7 9 4 5 1018.6 1018.6 0.0
30/10:00pm 23.4 24.3 18.3 73 3.2 SSE 11 17 6 9 1018.7 1018.7 0.0
30/09:30pm 23.9 24.1 18.5 72 3.4 SE 15 20 8 11 1018.7 1018.7 0.0
30/09:00pm 23.5 24.6 18.8 75 3.0 ESE 11 19 6 10 1018.4 1018.4 0.0
30/08:30pm 23.0 23.6 18.7 77 2.7 NE 13 20 7 11 1018.0 1018.0 0.0
30/08:00pm 23.7 22.9 18.1 71 3.5 E 19 35 10 19 1017.7 1017.7 0.0
30/07:30pm 23.8 24.3 19.3 76 2.9 E 15 22 8 12 1017.2 1017.2 0.0
30/07:00pm 23.0 25.2 20.3 85 1.7 ESE 9 11 5 6 1016.7 1016.7 0.0
30/06:30pm 22.5 23.7 20.0 86 1.6 NE 13 26 7 14 1016.3 1016.3 0.0
30/06:00pm 26.9 28.0 17.9 57 5.7 NE 9 13 5 7 1015.5 1015.5 0.0
30/05:30pm 27.6 28.5 17.5 54 6.4 ESE 9 15 5 8 1015.1 1015.1 0.0
30/05:00pm 28.0 27.8 17.5 52 6.6 ESE 15 22 8 12 1014.8 1014.8 0.0
30/04:30pm 28.6 29.0 18.1 53 6.7 ESE 13 20 7 11 1014.6 1014.6 0.0
30/04:00pm 27.3 27.6 18.0 56 5.9 ESE 13 19 7 10 1014.6 1014.6 0.0
30/03:30pm 27.8 27.7 17.9 54 6.3 E 15 22 8 12 1014.8 1014.8 0.0
30/03:00pm 27.0 26.0 18.0 58 5.7 ESE 20 35 11 19 1015.1 1015.1 0.0
30/02:30pm 25.8 27.3 19.7 69 3.9 E 11 20 6 11 1015.5 1015.5 0.0
30/02:00pm 23.2 23.0 19.4 79 2.4 E 19 32 10 17 1016.1 1016.1 0.0
30/01:30pm 26.2 25.8 19.3 65 4.4 SE 20 28 11 15 1016.2 1016.2 0.0
30/01:00pm 25.8 26.6 19.9 70 3.8 SSE 15 24 8 13 1016.5 1016.5 0.0
30/12:30pm 23.5 23.8 20.8 85 1.8 SE 20 32 11 17 1017.4 1017.4 0.0
30/12:00pm 24.3 23.3 18.9 72 3.4 ESE 22 41 12 22 1017.9 1017.9 0.0
30/11:30am 26.4 26.0 18.0 60 5.3 ESE 17 24 9 13 1017.8 1017.8 0.0
30/11:00am 26.4 25.4 18.0 60 5.3 ESE 20 28 11 15 1018.0 1018.0 0.0
30/10:30am 26.6 25.9 18.2 60 5.3 ESE 19 28 10 15 1017.9 1017.9 0.0
30/10:00am 25.6 25.8 18.5 65 4.5 ESE 15 24 8 13 1018.2 1018.2 0.0
30/09:30am 25.6 25.5 18.8 66 4.3 SE 17 22 9 12 1018.2 1018.2 0.0
30/09:00am 24.7 24.9 18.6 69 3.9 SE 15 24 8 13 1018.0 1018.0 0.0
30/08:30am 23.5 23.9 18.2 72 3.3 ESE 13 20 7 11 1017.5 1017.5 0.0
30/08:00am 23.1 23.4 17.8 72 3.3 ESE 13 20 7 11 1017.2 1017.2 0.0
30/07:30am 23.0 23.5 17.5 71 3.4 ESE 11 13 6 7 1016.9 1016.9 0.0
30/07:00am 22.2 22.9 17.1 73 3.1 E 9 11 5 6 1016.4 1016.4 0.0
30/06:30am 21.9 22.6 17.1 74 2.9 ESE 9 13 5 7 1016.1 1016.1 0.0
30/06:00am 21.2 22.3 17.2 78 2.4 ESE 7 11 4 6 1016.0 1016.0 0.0
30/05:30am 21.2 22.3 17.0 77 2.6 ESE 7 9 4 5 1015.8 1015.8 0.0
30/05:00am 21.4 22.7 17.2 77 2.6 SE 6 7 3 4 1015.8 1015.8 0.0
30/04:30am 21.5 23.0 17.5 78 2.5 E 6 7 3 4 1015.7 1015.7 0.0
30/04:00am 20.6 21.8 17.4 82 2.0 NE 7 9 4 5 1015.6 1015.6 0.0
30/03:30am 20.5 22.0 17.5 83 1.8 ENE 6 7 3 4 1015.6 1015.6 0.0
30/03:00am 20.1 21.7 17.9 87 1.4 NE 6 7 3 4 1015.6 1015.6 0.0
30/02:30am 19.3 20.5 17.4 89 1.2 ENE 7 9 4 5 1015.7 1015.7 0.0
30/02:00am 19.4 22.0 17.4 88 1.2 CALM 0 0 0 0 1015.8 1015.8 0.0
30/01:30am 19.7 22.3 17.5 87 1.3 CALM 0 0 0 0 1016.2 1016.2 0.0
30/01:00am 20.3 22.9 17.5 84 1.7 CALM 0 0 0 0 1016.2 1016.2 0.0
30/12:30am 20.5 23.1 17.5 83 1.8 CALM 0 0 0 0 1016.4 1016.4 0.0
30/12:00am 21.0 23.6 17.4 80 2.2 CALM 0 0 0 0 1016.4 1016.4 0.0
 
Date/Time
EST
Temp
°C
App
Temp
°C
Dew
Point
Rel
Hum
%
Delta-T
°C
Wind Press
QNH
hPa
Press
MSL
hPa
Rain
since 9 am
mm
Dir
 
Spd
km/h
Gust
km/h
Spd
kts
Gust
kts
29/11:30pm 22.0 23.7 18.0 78 2.5 SSW 6 9 3 5 1016.4 1016.4 0.0
29/11:00pm 22.3 24.6 18.5 79 2.4 SSW 4 7 2 4 1016.6 1016.6 0.0
29/10:30pm 22.2 23.9 18.4 79 2.4 SSW 7 9 4 5 1016.7 1016.7 0.0
29/10:00pm 22.4 24.2 18.2 77 2.6 WSW 6 7 3 4 1016.5 1016.5 0.0
29/09:30pm 23.0 24.1 18.1 74 3.1 WSW 9 13 5 7 1016.3 1016.3 0.0
29/09:00pm 23.4 24.4 17.8 71 3.5 WSW 9 11 5 6 1016.2 1016.2 0.0
29/08:30pm 23.9 25.0 17.9 69 3.8 WSW 9 11 5 6 1015.9 1015.9 0.0
29/08:00pm 24.4 24.9 17.4 65 4.3 W 11 15 6 8 1015.5 1015.5 0.0
29/07:30pm 24.8 25.4 16.8 61 4.9 WSW 9 11 5 6 1015.1 1015.1 0.0
29/07:00pm 25.5 26.0 16.6 58 5.5 WSW 9 13 5 7 1014.6 1014.6 0.0
29/06:30pm 26.1 26.0 16.9 57 5.7 W 13 17 7 9 1014.2 1014.2 0.0

Other Formats:

Comma delimited format used in spreadsheet applications
http://www.bom.gov.au/fwo/IDQ60801/IDQ60801.94268.axf

JavaScript Object Notation format (JSON) in row-major order
http://www.bom.gov.au/fwo/IDQ60801/IDQ60801.94268.json